createdAt,value
2023-03-20T00:01:22.914Z,18.40
2023-03-20T00:03:51.353Z,18.67
2023-03-20T00:06:24.140Z,18.90
2023-03-20T00:08:53.802Z,17.73
2023-03-20T00:11:33.344Z,16.95
2023-03-20T00:14:01.651Z,16.40
2023-03-20T00:16:34.945Z,16.17
2023-03-20T00:19:03.509Z,16.87
2023-03-20T00:21:31.204Z,16.23
2023-03-20T00:23:58.896Z,15.65
2023-03-20T00:26:31.250Z,15.15
2023-03-20T00:28:58.644Z,15.52
2023-03-20T00:31:28.943Z,14.85
2023-03-20T00:34:00.777Z,14.73
2023-03-20T00:36:28.739Z,13.77
2023-03-20T00:38:59.639Z,14.07
2023-03-20T00:41:55.542Z,14.25
2023-03-20T00:44:42.296Z,13.90
2023-03-20T00:47:21.648Z,14.27
2023-03-20T00:49:51.529Z,14.15
2023-03-20T00:52:20.116Z,15.32
2023-03-20T00:54:47.615Z,14.52
2023-03-20T00:57:43.002Z,14.45
2023-03-20T01:00:35.970Z,15.10
2023-03-20T01:03:12.571Z,14.40
2023-03-20T01:05:40.571Z,14.32
2023-03-20T01:08:21.633Z,13.38
2023-03-20T01:10:51.645Z,13.70
2023-03-20T01:13:26.136Z,13.52
2023-03-20T01:15:54.663Z,14.13
2023-03-20T01:18:24.004Z,14.57
2023-03-20T01:20:54.741Z,13.23
2023-03-20T01:23:23.323Z,14.02
2023-03-20T01:25:50.945Z,13.73
2023-03-20T01:28:22.214Z,14.48
2023-03-20T01:30:50.618Z,16.38
2023-03-20T01:33:23.283Z,16.58
2023-03-20T01:35:51.262Z,16.52
2023-03-20T01:38:27.533Z,17.00
2023-03-20T01:41:14.545Z,14.77
2023-03-20T01:43:42.190Z,14.98
2023-03-20T01:46:12.736Z,16.52
2023-03-20T01:48:55.509Z,15.80
2023-03-20T01:51:36.551Z,14.93
2023-03-20T01:54:16.681Z,14.55
2023-03-20T01:57:01.702Z,16.30
2023-03-20T01:59:42.222Z,16.80
2023-03-20T02:02:11.055Z,15.63
2023-03-20T02:04:42.199Z,16.00
2023-03-20T02:07:11.465Z,17.08
2023-03-20T02:09:38.725Z,16.35
2023-03-20T02:12:07.118Z,15.55
2023-03-20T02:14:34.308Z,15.95
2023-03-20T02:17:02.380Z,15.50
2023-03-20T02:19:44.829Z,14.77
2023-03-20T02:22:43.940Z,14.68
2023-03-20T02:25:20.168Z,14.73
2023-03-20T02:28:29.134Z,14.82
2023-03-20T02:31:34.042Z,14.82
2023-03-20T02:34:29.999Z,14.60
2023-03-20T02:37:18.397Z,14.93
2023-03-20T02:40:34.873Z,14.13
2023-03-20T02:43:20.761Z,14.80
2023-03-20T02:46:12.786Z,15.25
2023-03-20T02:49:04.018Z,15.25
2023-03-20T02:51:40.836Z,14.00
2023-03-20T02:54:32.618Z,14.80
2023-03-20T02:57:04.643Z,14.13
2023-03-20T02:59:43.648Z,14.68
2023-03-20T03:02:14.458Z,15.00
2023-03-20T03:04:51.157Z,15.10
2023-03-20T03:07:21.706Z,14.25
2023-03-20T03:10:03.237Z,14.50
2023-03-20T03:12:36.057Z,15.10
2023-03-20T03:15:08.025Z,14.75
2023-03-20T03:17:38.170Z,13.90
2023-03-20T03:20:14.981Z,13.95
2023-03-20T03:22:42.644Z,14.05
2023-03-20T03:25:12.885Z,13.82
2023-03-20T03:27:47.193Z,13.85
2023-03-20T03:30:19.245Z,14.10
2023-03-20T03:33:19.879Z,14.55
2023-03-20T03:35:48.873Z,13.68
2023-03-20T03:38:45.774Z,13.98
2023-03-20T03:41:22.749Z,13.73
2023-03-20T03:44:08.908Z,13.98
2023-03-20T03:47:00.765Z,13.52
2023-03-20T03:49:38.328Z,13.75
2023-03-20T03:52:14.243Z,13.45
2023-03-20T03:54:46.298Z,13.52
2023-03-20T03:57:16.747Z,13.82
2023-03-20T03:59:51.970Z,12.75
2023-03-20T04:02:22.685Z,12.30
2023-03-20T04:04:53.409Z,13.40
2023-03-20T04:07:21.739Z,13.63
2023-03-20T04:09:48.992Z,12.13
2023-03-20T04:12:43.225Z,12.63
2023-03-20T04:15:11.672Z,12.93
2023-03-20T04:17:39.243Z,13.38
2023-03-20T04:20:08.090Z,13.27
2023-03-20T04:22:35.662Z,12.23
2023-03-20T04:25:08.227Z,13.52
2023-03-20T04:27:35.629Z,13.18
2023-03-20T04:30:02.832Z,13.13
2023-03-20T04:32:29.967Z,13.85
2023-03-20T04:34:57.179Z,14.10
2023-03-20T04:37:24.455Z,13.05
2023-03-20T04:39:52.119Z,13.35
2023-03-20T04:42:19.525Z,12.90
2023-03-20T04:44:46.819Z,13.40
2023-03-20T04:47:14.112Z,14.18
2023-03-20T04:49:41.680Z,14.00
2023-03-20T04:52:09.194Z,13.45
2023-03-20T04:54:36.487Z,13.45
2023-03-20T04:57:03.937Z,14.65
2023-03-20T04:59:31.325Z,13.90
2023-03-20T05:01:58.645Z,12.70
2023-03-20T05:04:29.749Z,12.40
2023-03-20T05:06:57.651Z,11.68
2023-03-20T05:09:24.889Z,11.57
2023-03-20T05:11:52.205Z,11.35
2023-03-20T05:14:19.500Z,11.02
2023-03-20T05:16:47.019Z,11.40
2023-03-20T05:19:14.268Z,10.70
2023-03-20T05:21:41.712Z,10.90
2023-03-20T05:24:09.852Z,10.65
2023-03-20T05:26:37.248Z,10.13
2023-03-20T05:29:04.554Z,11.07
2023-03-20T05:31:31.818Z,9.55
2023-03-20T05:33:59.566Z,10.50
2023-03-20T05:36:27.362Z,10.85
2023-03-20T05:38:54.744Z,11.18
2023-03-20T05:41:22.020Z,11.45
2023-03-20T05:43:49.321Z,11.20
2023-03-20T05:46:16.537Z,10.73
2023-03-20T05:48:44.004Z,10.57
2023-03-20T05:51:11.603Z,11.18
2023-03-20T05:53:38.947Z,10.60
2023-03-20T05:56:06.753Z,11.23
2023-03-20T05:58:35.537Z,11.35
2023-03-20T06:01:03.070Z,10.98
2023-03-20T06:03:30.438Z,11.02
2023-03-20T06:05:57.868Z,10.85
2023-03-20T06:08:25.638Z,10.98
2023-03-20T06:10:53.584Z,10.82
2023-03-20T06:13:20.931Z,11.20
2023-03-20T06:15:50.619Z,12.65
2023-03-20T06:18:17.972Z,12.07
2023-03-20T06:20:45.563Z,11.68
2023-03-20T06:23:13.892Z,10.45
2023-03-20T06:25:41.175Z,11.32
2023-03-20T06:28:08.483Z,10.95
2023-03-20T06:30:36.217Z,10.90
2023-03-20T06:33:03.974Z,11.55
2023-03-20T06:35:32.317Z,11.30
2023-03-20T06:38:00.384Z,10.75
2023-03-20T06:40:28.393Z,11.23
2023-03-20T06:42:56.372Z,11.20
2023-03-20T06:45:24.097Z,11.10
2023-03-20T06:47:51.376Z,10.90
2023-03-20T06:50:18.877Z,10.35
2023-03-20T06:52:46.266Z,11.60
2023-03-20T06:55:13.940Z,10.90
2023-03-20T06:57:41.692Z,10.32
2023-03-20T07:00:10.626Z,10.80
2023-03-20T07:02:38.144Z,10.70
2023-03-20T07:05:08.707Z,11.25
2023-03-20T07:07:36.264Z,11.43
2023-03-20T07:10:04.907Z,10.55
2023-03-20T07:12:32.322Z,11.10
2023-03-20T07:15:02.737Z,10.43
2023-03-20T07:17:29.988Z,10.95
2023-03-20T07:19:57.147Z,10.40
2023-03-20T07:22:29.369Z,10.75
2023-03-20T07:24:57.463Z,10.60
2023-03-20T07:27:24.706Z,10.52
2023-03-20T07:29:55.311Z,10.88
2023-03-20T07:32:22.559Z,11.23
2023-03-20T07:34:50.571Z,9.93
2023-03-20T07:37:18.228Z,11.23
2023-03-20T07:39:45.802Z,10.68
2023-03-20T07:42:14.034Z,10.30
2023-03-20T07:44:41.404Z,10.18
2023-03-20T07:47:09.118Z,10.65
2023-03-20T07:49:36.772Z,9.98
2023-03-20T07:52:04.281Z,11.73
2023-03-20T07:54:31.760Z,10.63
2023-03-20T07:56:59.218Z,10.05
2023-03-20T07:59:27.899Z,10.40
2023-03-20T08:01:55.143Z,11.00
2023-03-20T08:04:23.429Z,10.13
2023-03-20T08:06:51.507Z,9.95
2023-03-20T08:09:19.403Z,10.57
2023-03-20T08:11:46.878Z,10.43
2023-03-20T08:14:14.307Z,10.38
2023-03-20T08:16:42.061Z,10.18
2023-03-20T08:19:09.501Z,10.90
2023-03-20T08:21:36.795Z,9.73
2023-03-20T08:24:04.284Z,9.57
2023-03-20T08:26:31.550Z,8.88
2023-03-20T08:28:59.804Z,7.20
2023-03-20T08:31:27.275Z,7.75
2023-03-20T08:33:56.983Z,7.00
2023-03-20T08:36:24.407Z,6.78
2023-03-20T08:38:51.762Z,6.90
2023-03-20T08:41:19.823Z,6.43
2023-03-20T08:43:47.947Z,5.93
2023-03-20T08:46:15.328Z,6.38
2023-03-20T08:48:43.369Z,6.25
2023-03-20T08:51:10.903Z,5.53
2023-03-20T08:53:38.129Z,5.45
2023-03-20T08:56:06.099Z,5.43
2023-03-20T08:58:33.718Z,5.35
2023-03-20T09:01:05.876Z,4.93
2023-03-20T09:03:33.126Z,5.65
2023-03-20T09:06:00.691Z,5.60
2023-03-20T09:08:27.969Z,4.93
2023-03-20T09:10:55.129Z,4.78
2023-03-20T09:13:27.514Z,4.53
2023-03-20T09:15:57.336Z,4.20
2023-03-20T09:18:26.031Z,5.28
2023-03-20T09:20:53.399Z,4.38
2023-03-20T09:23:20.617Z,4.43
2023-03-20T09:25:48.064Z,4.65
2023-03-20T09:28:15.520Z,5.47
2023-03-20T09:30:43.963Z,4.78
2023-03-20T09:33:11.711Z,4.90
2023-03-20T09:35:40.080Z,5.28
2023-03-20T09:38:08.632Z,5.13
2023-03-20T09:41:03.242Z,6.20
2023-03-20T09:43:36.498Z,5.00
2023-03-20T09:46:16.324Z,5.43
2023-03-20T09:48:57.096Z,6.03
2023-03-20T09:51:32.051Z,6.50
2023-03-20T09:54:25.951Z,6.63
2023-03-20T09:56:55.065Z,5.93
2023-03-20T09:59:25.457Z,5.97
2023-03-20T10:01:55.829Z,6.53
2023-03-20T10:04:27.077Z,6.13
2023-03-20T10:06:54.526Z,6.20
2023-03-20T10:09:28.282Z,5.88
2023-03-20T10:12:09.180Z,6.78
2023-03-20T10:14:55.313Z,6.80
2023-03-20T10:17:40.723Z,6.47
2023-03-20T10:20:13.902Z,6.40
2023-03-20T10:22:53.737Z,6.03
2023-03-20T10:25:26.633Z,6.43
2023-03-20T10:28:17.437Z,5.97
2023-03-20T10:30:49.645Z,6.25
2023-03-20T10:33:46.985Z,5.88
2023-03-20T10:36:36.462Z,5.43
2023-03-20T10:39:35.415Z,5.50
2023-03-20T10:42:06.926Z,5.65
2023-03-20T10:44:45.036Z,6.00
2023-03-20T10:47:16.787Z,5.63
2023-03-20T10:49:51.623Z,6.10
2023-03-20T10:52:25.172Z,6.55
2023-03-20T10:55:27.866Z,5.65
2023-03-20T10:58:21.909Z,5.65
2023-03-20T11:00:49.849Z,5.83
2023-03-20T11:03:29.553Z,5.35
2023-03-20T11:06:24.976Z,5.53
2023-03-20T11:08:53.814Z,5.60
2023-03-20T11:11:30.807Z,5.80
2023-03-20T11:13:58.900Z,6.72
2023-03-20T11:16:37.186Z,5.75
2023-03-20T11:19:07.900Z,5.72
2023-03-20T11:21:45.963Z,5.50
2023-03-20T11:24:40.064Z,5.15
2023-03-20T11:27:17.939Z,5.40
2023-03-20T11:29:49.365Z,5.18
2023-03-20T11:32:34.220Z,6.00
2023-03-20T11:35:26.715Z,5.60
2023-03-20T11:38:15.662Z,5.97
2023-03-20T11:40:46.816Z,5.57
2023-03-20T11:43:26.001Z,6.05
2023-03-20T11:46:01.756Z,6.00
2023-03-20T11:48:45.732Z,5.82
2023-03-20T11:51:19.228Z,5.60
2023-03-20T11:53:50.324Z,5.00
2023-03-20T11:56:29.194Z,4.55
2023-03-20T11:59:15.680Z,4.90
2023-03-20T12:01:52.044Z,4.53
2023-03-20T12:04:26.448Z,4.78
2023-03-20T12:07:07.856Z,4.25
2023-03-20T12:09:55.194Z,3.55
2023-03-20T12:12:25.181Z,3.33
2023-03-20T12:15:01.616Z,3.03
2023-03-20T12:17:41.401Z,3.22
2023-03-20T12:20:15.347Z,3.05
2023-03-20T12:23:05.943Z,3.35
2023-03-20T12:25:52.836Z,3.13
2023-03-20T12:28:32.002Z,2.50
2023-03-20T12:31:10.667Z,2.67
2023-03-20T12:33:56.479Z,2.50
2023-03-20T12:36:37.569Z,2.22
2023-03-20T12:39:07.326Z,2.00
2023-03-20T12:42:11.959Z,2.30
2023-03-20T12:44:54.601Z,2.20
2023-03-20T12:47:45.972Z,2.35
2023-03-20T12:50:43.196Z,2.17
2023-03-20T12:53:34.865Z,2.78
2023-03-20T12:56:20.971Z,3.45
2023-03-20T12:58:50.788Z,2.83
2023-03-20T13:01:36.874Z,2.33
2023-03-20T13:04:32.047Z,2.00
2023-03-20T13:07:06.264Z,2.00
2023-03-20T13:10:12.656Z,2.20
2023-03-20T13:15:38.957Z,2.10
2023-03-20T13:18:34.019Z,1.73
2023-03-20T13:21:09.368Z,2.10
2023-03-20T13:23:39.665Z,1.67
2023-03-20T13:26:32.239Z,1.75
2023-03-20T13:29:14.283Z,2.08
2023-03-20T13:32:09.841Z,2.15
2023-03-20T13:34:58.768Z,1.95
2023-03-20T13:38:03.749Z,2.30
2023-03-20T13:40:35.904Z,2.58
2023-03-20T13:43:06.386Z,2.35
2023-03-20T13:45:42.135Z,2.22
2023-03-20T13:48:39.126Z,2.33
2023-03-20T13:51:30.722Z,2.63
2023-03-20T13:54:07.605Z,2.80
2023-03-20T13:57:00.234Z,2.70
2023-03-20T13:59:38.474Z,2.70
2023-03-20T14:02:34.781Z,2.60
2023-03-20T14:05:23.469Z,2.45
2023-03-20T14:07:56.792Z,2.00
2023-03-20T14:10:24.410Z,1.97
2023-03-20T14:12:54.984Z,1.85
2023-03-20T14:15:25.594Z,2.20
2023-03-20T14:17:53.375Z,2.20
2023-03-20T14:20:33.172Z,1.88
2023-03-20T14:23:01.281Z,1.90
2023-03-20T14:25:33.843Z,2.20
2023-03-20T14:28:13.034Z,2.08
2023-03-20T14:30:42.104Z,1.77
2023-03-20T14:33:18.577Z,2.10
2023-03-20T14:35:51.379Z,1.65
2023-03-20T14:38:26.805Z,2.08
2023-03-20T14:41:11.441Z,1.98
2023-03-20T14:44:03.856Z,2.28
2023-03-20T14:46:40.055Z,1.95
2023-03-20T14:49:42.636Z,2.10
2023-03-20T14:52:30.559Z,1.85
2023-03-20T14:55:33.741Z,2.13
2023-03-20T14:58:06.857Z,1.80
2023-03-20T15:00:44.722Z,1.90
2023-03-20T15:03:16.278Z,1.95
2023-03-20T15:05:45.243Z,2.00
2023-03-20T15:08:24.531Z,2.03
2023-03-20T15:10:58.381Z,2.10
2023-03-20T15:13:26.419Z,2.40
2023-03-20T15:16:07.175Z,2.08
2023-03-20T15:18:43.161Z,2.10
2023-03-20T15:21:21.205Z,2.47
2023-03-20T15:23:49.014Z,2.70
2023-03-20T15:26:18.862Z,2.25
2023-03-20T15:28:47.286Z,1.95
2023-03-20T15:31:33.159Z,2.60
2023-03-20T15:34:03.079Z,2.10
2023-03-20T15:36:37.333Z,2.45
2023-03-20T15:41:40.741Z,2.72
2023-03-20T15:44:19.936Z,2.58
2023-03-20T15:46:57.468Z,2.20
2023-03-20T15:49:26.286Z,2.90
2023-03-20T15:51:56.650Z,2.67
2023-03-20T15:54:24.124Z,2.20
2023-03-20T15:56:53.370Z,2.30
2023-03-20T15:59:25.167Z,2.60
2023-03-20T16:01:57.081Z,2.13
2023-03-20T16:04:24.804Z,2.22
2023-03-20T16:07:00.655Z,2.28
2023-03-20T16:09:29.347Z,2.13
2023-03-20T16:12:01.919Z,2.22
2023-03-20T16:14:35.237Z,2.58
2023-03-20T16:17:15.156Z,2.23
2023-03-20T16:19:42.657Z,1.98
2023-03-20T16:22:19.865Z,2.50
2023-03-20T16:24:51.392Z,2.28
2023-03-20T16:27:28.668Z,2.10
2023-03-20T16:29:57.389Z,2.45
2023-03-20T16:32:28.103Z,2.40
2023-03-20T16:34:57.906Z,2.40
2023-03-20T16:37:26.974Z,2.20
2023-03-20T16:40:34.058Z,2.30
2023-03-20T16:43:16.991Z,2.33
2023-03-20T16:45:54.375Z,2.20
2023-03-20T16:48:31.328Z,2.42
2023-03-20T16:51:24.997Z,2.65
2023-03-20T16:53:56.993Z,2.47
2023-03-20T16:56:37.216Z,2.80
2023-03-20T16:59:18.474Z,2.60
2023-03-20T17:01:54.502Z,2.40
2023-03-20T17:04:34.349Z,2.60
2023-03-20T17:07:19.621Z,2.40
2023-03-20T17:10:20.571Z,2.88
2023-03-20T17:12:51.702Z,2.50
2023-03-20T17:15:24.145Z,2.67
2023-03-20T17:17:52.492Z,2.38
2023-03-20T17:20:27.400Z,2.45
2023-03-20T17:22:55.198Z,2.25
2023-03-20T17:25:22.570Z,2.38
2023-03-20T17:27:50.603Z,2.00
2023-03-20T17:30:25.364Z,2.50
2023-03-20T17:32:53.387Z,2.17
2023-03-20T17:35:22.136Z,2.08
2023-03-20T17:37:49.562Z,2.00
2023-03-20T17:40:22.502Z,2.17
2023-03-20T17:42:49.934Z,1.88
2023-03-20T17:45:20.565Z,2.00
2023-03-20T17:47:50.538Z,2.33
2023-03-20T17:50:24.663Z,2.00
2023-03-20T17:52:52.086Z,3.05
2023-03-20T17:55:20.394Z,5.07
2023-03-20T17:57:48.971Z,5.18
2023-03-20T18:00:20.636Z,3.85
2023-03-20T18:02:48.291Z,4.82
2023-03-20T18:05:15.755Z,2.85
2023-03-20T18:07:43.024Z,3.15
2023-03-20T18:10:36.048Z,2.70
2023-03-20T18:13:05.483Z,2.72
2023-03-20T18:15:33.142Z,2.42
2023-03-20T18:18:00.518Z,2.90
2023-03-20T18:20:33.076Z,2.72
2023-03-20T18:23:00.649Z,3.20
2023-03-20T18:25:28.574Z,4.82
2023-03-20T18:27:57.613Z,2.40
2023-03-20T18:30:31.732Z,2.55
2023-03-20T18:32:59.072Z,2.17
2023-03-20T18:35:26.430Z,2.60
2023-03-20T18:37:53.562Z,2.97
2023-03-20T18:40:22.458Z,2.80
2023-03-20T18:42:49.672Z,2.53
2023-03-20T18:45:17.176Z,2.55
2023-03-20T18:47:44.883Z,2.13
2023-03-20T18:50:37.530Z,3.80
2023-03-20T18:53:06.540Z,2.15
2023-03-20T18:55:34.534Z,2.58
2023-03-20T18:58:06.642Z,2.53
2023-03-20T19:00:43.036Z,2.47
2023-03-20T19:03:11.737Z,2.78
2023-03-20T19:05:39.427Z,2.42
2023-03-20T19:08:06.847Z,2.22
2023-03-20T19:10:37.991Z,7.78
2023-03-20T19:13:06.953Z,3.35
2023-03-20T19:15:37.050Z,2.75
2023-03-20T19:18:06.327Z,7.97
2023-03-20T19:20:34.732Z,4.35
2023-03-20T19:23:06.008Z,3.08
2023-03-20T19:25:34.140Z,2.80
2023-03-20T19:28:02.203Z,2.30
2023-03-20T19:30:34.588Z,2.30
2023-03-20T19:33:03.018Z,2.42
2023-03-20T19:38:22.060Z,2.85
2023-03-20T19:40:54.457Z,3.00
2023-03-20T19:43:23.167Z,2.97
2023-03-20T19:45:58.379Z,2.80
2023-03-20T19:48:46.797Z,2.78
2023-03-20T19:51:18.920Z,2.95
2023-03-20T19:53:47.332Z,3.15
2023-03-20T19:56:18.660Z,2.92
2023-03-20T19:58:46.574Z,2.78
2023-03-20T20:01:19.162Z,3.33
2023-03-20T20:03:47.474Z,2.60
2023-03-20T20:06:15.778Z,3.22
2023-03-20T20:08:53.310Z,2.60
2023-03-20T20:11:21.393Z,3.17
2023-03-20T20:14:05.749Z,3.03
2023-03-20T20:16:37.438Z,3.10
2023-03-20T20:19:05.009Z,3.00
2023-03-20T20:24:23.209Z,2.72
2023-03-20T20:27:07.309Z,2.75
2023-03-20T20:29:39.551Z,3.30
2023-03-20T20:32:06.747Z,3.08
2023-03-20T20:38:21.194Z,2.85
2023-03-20T20:40:14.509Z,2.83
2023-03-20T20:42:43.283Z,3.22
2023-03-20T20:45:14.838Z,3.03
2023-03-20T20:47:45.089Z,2.60
2023-03-20T20:50:15.827Z,3.13
2023-03-20T20:52:43.421Z,3.35
2023-03-20T20:55:22.872Z,3.30
2023-03-20T20:57:52.626Z,3.80
2023-03-20T21:00:27.531Z,4.25
2023-03-20T21:02:56.792Z,3.90
2023-03-20T21:05:24.247Z,3.78
2023-03-20T21:07:54.327Z,4.13
2023-03-20T21:10:22.412Z,4.10
2023-03-20T21:12:58.933Z,3.80
2023-03-20T21:15:27.985Z,3.60
2023-03-20T21:18:01.188Z,3.55
2023-03-20T21:20:33.315Z,3.15
2023-03-20T21:23:00.804Z,3.85
2023-03-20T21:25:39.595Z,3.67
2023-03-20T21:28:08.636Z,3.15
2023-03-20T21:30:36.610Z,3.47
2023-03-20T21:33:03.963Z,3.40
2023-03-20T21:35:31.766Z,3.65
2023-03-20T21:40:47.631Z,3.22
2023-03-20T21:43:16.613Z,3.00
2023-03-20T21:46:40.278Z,3.25
2023-03-20T21:49:06.884Z,3.40
2023-03-20T21:52:24.713Z,2.97
2023-03-20T21:55:00.572Z,3.50
2023-03-20T21:57:30.580Z,3.28
2023-03-20T22:02:32.265Z,3.25
2023-03-20T22:08:26.956Z,3.20
2023-03-20T22:14:22.457Z,3.20
2023-03-20T22:19:56.035Z,3.35
2023-03-20T22:22:48.978Z,2.97
2023-03-20T22:33:55.491Z,2.85
2023-03-20T22:42:18.443Z,2.88
2023-03-20T22:46:56.109Z,3.00
2023-03-20T22:49:23.570Z,2.97
2023-03-20T22:52:11.234Z,3.30
2023-03-20T22:54:39.184Z,2.85
2023-03-20T22:57:06.742Z,3.25
2023-03-20T22:59:34.017Z,3.22
2023-03-20T23:02:01.629Z,3.28
2023-03-20T23:04:30.224Z,2.95
2023-03-20T23:06:57.638Z,2.60
2023-03-20T23:09:24.897Z,3.00
2023-03-20T23:11:52.091Z,3.30
2023-03-20T23:14:22.116Z,2.83
2023-03-20T23:16:51.230Z,2.90
2023-03-20T23:19:18.677Z,2.67
2023-03-20T23:21:45.978Z,3.42
2023-03-20T23:24:13.276Z,3.22
2023-03-20T23:26:40.490Z,2.58
2023-03-20T23:29:08.067Z,3.00
2023-03-20T23:31:35.502Z,3.25
2023-03-20T23:34:02.919Z,3.13
2023-03-20T23:36:36.959Z,3.10
2023-03-20T23:39:10.473Z,2.72
2023-03-20T23:44:25.530Z,3.17
2023-03-20T23:46:53.392Z,2.75
2023-03-20T23:49:20.589Z,3.03
2023-03-20T23:51:47.998Z,2.80
2023-03-20T23:54:15.747Z,2.78
2023-03-20T23:56:43.180Z,2.85
2023-03-20T23:59:21.153Z,2.80
